sensor_id;sensor_type;location;lat;lon;timestamp;temperature;humidity
6538;DHT22;3302;52.508;13.454;2023-07-20T00:01:14;17.50;99.90
6538;DHT22;3302;52.508;13.454;2023-07-20T00:03:40;17.50;99.90
6538;DHT22;3302;52.508;13.454;2023-07-20T00:06:06;17.40;99.90
6538;DHT22;3302;52.508;13.454;2023-07-20T00:08:31;17.40;99.90
6538;DHT22;3302;52.508;13.454;2023-07-20T00:10:57;17.40;99.90
6538;DHT22;3302;52.508;13.454;2023-07-20T00:13:24;17.40;99.90
6538;DHT22;3302;52.508;13.454;2023-07-20T00:15:50;17.40;99.90
6538;DHT22;3302;52.508;13.454;2023-07-20T00:18:16;17.50;99.90
6538;DHT22;3302;52.508;13.454;2023-07-20T00:20:42;17.30;99.90
6538;DHT22;3302;52.508;13.454;2023-07-20T00:23:08;17.30;99.90
6538;DHT22;3302;52.508;13.454;2023-07-20T00:25:34;17.40;99.90
6538;DHT22;3302;52.508;13.454;2023-07-20T00:28:01;17.40;99.90
6538;DHT22;3302;52.508;13.454;2023-07-20T00:30:27;17.30;99.90
6538;DHT22;3302;52.508;13.454;2023-07-20T00:32:53;17.30;99.90
6538;DHT22;3302;52.508;13.454;2023-07-20T00:35:18;17.30;99.90
6538;DHT22;3302;52.508;13.454;2023-07-20T00:37:44;17.30;99.90
6538;DHT22;3302;52.508;13.454;2023-07-20T00:40:10;17.30;99.90
6538;DHT22;3302;52.508;13.454;2023-07-20T00:42:36;17.30;99.90
6538;DHT22;3302;52.508;13.454;2023-07-20T00:45:02;17.40;99.90
6538;DHT22;3302;52.508;13.454;2023-07-20T00:47:28;17.20;99.90
6538;DHT22;3302;52.508;13.454;2023-07-20T00:49:54;17.30;99.90
6538;DHT22;3302;52.508;13.454;2023-07-20T00:52:23;17.00;99.90
6538;DHT22;3302;52.508;13.454;2023-07-20T00:54:51;17.00;99.90
6538;DHT22;3302;52.508;13.454;2023-07-20T00:57:17;17.20;99.90
6538;DHT22;3302;52.508;13.454;2023-07-20T00:59:45;17.20;99.90
6538;DHT22;3302;52.508;13.454;2023-07-20T01:02:10;17.00;99.90
6538;DHT22;3302;52.508;13.454;2023-07-20T01:04:37;17.10;99.90
6538;DHT22;3302;52.508;13.454;2023-07-20T01:07:14;17.00;99.90
6538;DHT22;3302;52.508;13.454;2023-07-20T01:09:57;16.70;99.90
6538;DHT22;3302;52.508;13.454;2023-07-20T01:12:30;16.80;99.90
6538;DHT22;3302;52.508;13.454;2023-07-20T01:14:58;16.80;99.90
6538;DHT22;3302;52.508;13.454;2023-07-20T01:17:25;16.80;99.90
6538;DHT22;3302;52.508;13.454;2023-07-20T01:19:50;16.80;99.90
6538;DHT22;3302;52.508;13.454;2023-07-20T01:22:44;16.90;99.90
6538;DHT22;3302;52.508;13.454;2023-07-20T01:28:35;16.70;99.90
6538;DHT22;3302;52.508;13.454;2023-07-20T01:31:28;16.60;99.90
6538;DHT22;3302;52.508;13.454;2023-07-20T01:33:57;16.70;99.90
6538;DHT22;3302;52.508;13.454;2023-07-20T01:36:24;16.80;99.90
6538;DHT22;3302;52.508;13.454;2023-07-20T01:38:52;16.90;99.90
6538;DHT22;3302;52.508;13.454;2023-07-20T01:41:19;16.70;99.90
6538;DHT22;3302;52.508;13.454;2023-07-20T01:43:44;16.80;99.90
6538;DHT22;3302;52.508;13.454;2023-07-20T01:46:11;16.80;99.90
6538;DHT22;3302;52.508;13.454;2023-07-20T01:48:37;16.90;99.90
6538;DHT22;3302;52.508;13.454;2023-07-20T01:51:02;16.70;99.90
6538;DHT22;3302;52.508;13.454;2023-07-20T01:53:28;16.80;99.90
6538;DHT22;3302;52.508;13.454;2023-07-20T01:55:54;16.80;99.90
6538;DHT22;3302;52.508;13.454;2023-07-20T01:58:20;16.80;99.90
6538;DHT22;3302;52.508;13.454;2023-07-20T02:00:46;16.70;99.90
6538;DHT22;3302;52.508;13.454;2023-07-20T02:03:12;16.80;99.90
6538;DHT22;3302;52.508;13.454;2023-07-20T02:05:38;16.70;99.90
6538;DHT22;3302;52.508;13.454;2023-07-20T02:08:04;16.50;99.90
6538;DHT22;3302;52.508;13.454;2023-07-20T02:10:30;16.60;99.90
6538;DHT22;3302;52.508;13.454;2023-07-20T02:12:56;16.60;99.90
6538;DHT22;3302;52.508;13.454;2023-07-20T02:15:22;16.60;99.90
6538;DHT22;3302;52.508;13.454;2023-07-20T02:17:48;16.70;99.90
6538;DHT22;3302;52.508;13.454;2023-07-20T02:20:13;16.80;99.90
6538;DHT22;3302;52.508;13.454;2023-07-20T02:22:40;16.80;99.90
6538;DHT22;3302;52.508;13.454;2023-07-20T02:25:06;16.70;99.90
6538;DHT22;3302;52.508;13.454;2023-07-20T02:27:33;16.70;99.90
6538;DHT22;3302;52.508;13.454;2023-07-20T02:29:59;16.70;99.90
6538;DHT22;3302;52.508;13.454;2023-07-20T02:32:25;16.70;99.90
6538;DHT22;3302;52.508;13.454;2023-07-20T02:34:51;16.60;99.90
6538;DHT22;3302;52.508;13.454;2023-07-20T02:37:17;16.50;99.90
6538;DHT22;3302;52.508;13.454;2023-07-20T02:39:43;16.60;99.90
6538;DHT22;3302;52.508;13.454;2023-07-20T02:42:09;16.30;99.90
6538;DHT22;3302;52.508;13.454;2023-07-20T02:44:35;16.20;99.90
6538;DHT22;3302;52.508;13.454;2023-07-20T02:47:00;16.40;99.90
6538;DHT22;3302;52.508;13.454;2023-07-20T02:49:27;16.30;99.90
6538;DHT22;3302;52.508;13.454;2023-07-20T02:51:53;16.30;99.90
6538;DHT22;3302;52.508;13.454;2023-07-20T02:54:19;16.30;99.90
6538;DHT22;3302;52.508;13.454;2023-07-20T02:56:44;16.20;99.90
6538;DHT22;3302;52.508;13.454;2023-07-20T02:59:10;16.00;99.90
6538;DHT22;3302;52.508;13.454;2023-07-20T03:01:36;16.00;99.90
6538;DHT22;3302;52.508;13.454;2023-07-20T03:04:02;16.00;99.90
6538;DHT22;3302;52.508;13.454;2023-07-20T03:06:28;16.00;99.90
6538;DHT22;3302;52.508;13.454;2023-07-20T03:08:53;16.10;99.90
6538;DHT22;3302;52.508;13.454;2023-07-20T03:11:20;16.00;99.90
6538;DHT22;3302;52.508;13.454;2023-07-20T03:13:47;16.00;99.90
6538;DHT22;3302;52.508;13.454;2023-07-20T03:16:15;16.00;99.90
6538;DHT22;3302;52.508;13.454;2023-07-20T03:18:41;15.90;99.90
6538;DHT22;3302;52.508;13.454;2023-07-20T03:21:08;15.70;99.90
6538;DHT22;3302;52.508;13.454;2023-07-20T03:23:37;15.90;99.90
6538;DHT22;3302;52.508;13.454;2023-07-20T03:26:03;16.00;99.90
6538;DHT22;3302;52.508;13.454;2023-07-20T03:28:29;16.10;99.90
6538;DHT22;3302;52.508;13.454;2023-07-20T03:30:58;16.00;99.90
6538;DHT22;3302;52.508;13.454;2023-07-20T03:33:28;16.20;99.90
6538;DHT22;3302;52.508;13.454;2023-07-20T03:35:55;15.90;99.90
6538;DHT22;3302;52.508;13.454;2023-07-20T03:38:22;16.00;99.90
6538;DHT22;3302;52.508;13.454;2023-07-20T03:40:58;16.00;99.90
6538;DHT22;3302;52.508;13.454;2023-07-20T03:43:25;16.20;99.90
6538;DHT22;3302;52.508;13.454;2023-07-20T03:45:52;16.10;99.90
6538;DHT22;3302;52.508;13.454;2023-07-20T03:48:19;16.10;99.90
6538;DHT22;3302;52.508;13.454;2023-07-20T03:50:46;16.10;99.90
6538;DHT22;3302;52.508;13.454;2023-07-20T03:53:13;16.20;99.90
6538;DHT22;3302;52.508;13.454;2023-07-20T03:55:39;16.00;99.90
6538;DHT22;3302;52.508;13.454;2023-07-20T03:58:06;16.10;99.90
6538;DHT22;3302;52.508;13.454;2023-07-20T04:00:33;16.10;99.90
6538;DHT22;3302;52.508;13.454;2023-07-20T04:02:58;16.10;99.90
6538;DHT22;3302;52.508;13.454;2023-07-20T04:05:24;16.10;99.90
6538;DHT22;3302;52.508;13.454;2023-07-20T04:07:51;16.10;99.90
6538;DHT22;3302;52.508;13.454;2023-07-20T04:10:20;16.10;99.90
6538;DHT22;3302;52.508;13.454;2023-07-20T04:12:46;16.10;99.90
6538;DHT22;3302;52.508;13.454;2023-07-20T04:15:15;16.10;99.90
6538;DHT22;3302;52.508;13.454;2023-07-20T04:17:40;15.80;99.90
6538;DHT22;3302;52.508;13.454;2023-07-20T04:20:07;15.90;99.90
6538;DHT22;3302;52.508;13.454;2023-07-20T04:22:33;16.00;99.90
6538;DHT22;3302;52.508;13.454;2023-07-20T04:24:59;16.10;99.90
6538;DHT22;3302;52.508;13.454;2023-07-20T04:27:25;16.10;99.90
6538;DHT22;3302;52.508;13.454;2023-07-20T04:29:52;15.90;99.90
6538;DHT22;3302;52.508;13.454;2023-07-20T04:32:17;16.00;99.90
6538;DHT22;3302;52.508;13.454;2023-07-20T04:34:43;16.10;99.90
6538;DHT22;3302;52.508;13.454;2023-07-20T04:37:09;16.10;99.90
6538;DHT22;3302;52.508;13.454;2023-07-20T04:39:35;16.20;99.90
6538;DHT22;3302;52.508;13.454;2023-07-20T04:42:00;16.10;99.90
6538;DHT22;3302;52.508;13.454;2023-07-20T04:44:26;16.10;99.90
6538;DHT22;3302;52.508;13.454;2023-07-20T04:46:52;16.10;99.90
6538;DHT22;3302;52.508;13.454;2023-07-20T04:49:18;16.10;99.90
6538;DHT22;3302;52.508;13.454;2023-07-20T04:51:44;16.10;99.90
6538;DHT22;3302;52.508;13.454;2023-07-20T04:54:10;16.10;99.90
6538;DHT22;3302;52.508;13.454;2023-07-20T04:56:36;16.10;99.90
6538;DHT22;3302;52.508;13.454;2023-07-20T04:59:02;16.10;99.90
6538;DHT22;3302;52.508;13.454;2023-07-20T05:01:27;16.20;99.90
6538;DHT22;3302;52.508;13.454;2023-07-20T05:03:53;16.20;99.90
6538;DHT22;3302;52.508;13.454;2023-07-20T05:06:19;16.30;99.90
6538;DHT22;3302;52.508;13.454;2023-07-20T05:08:45;16.20;99.90
6538;DHT22;3302;52.508;13.454;2023-07-20T05:11:11;16.10;99.90
6538;DHT22;3302;52.508;13.454;2023-07-20T05:13:37;16.30;99.90
6538;DHT22;3302;52.508;13.454;2023-07-20T05:16:03;16.10;99.90
6538;DHT22;3302;52.508;13.454;2023-07-20T05:18:29;16.20;99.90
6538;DHT22;3302;52.508;13.454;2023-07-20T05:20:55;16.20;99.90
6538;DHT22;3302;52.508;13.454;2023-07-20T05:23:21;16.30;99.90
6538;DHT22;3302;52.508;13.454;2023-07-20T05:25:54;16.30;99.90
6538;DHT22;3302;52.508;13.454;2023-07-20T05:28:20;16.10;99.90
6538;DHT22;3302;52.508;13.454;2023-07-20T05:30:46;16.30;99.90
6538;DHT22;3302;52.508;13.454;2023-07-20T05:33:12;16.30;99.90
6538;DHT22;3302;52.508;13.454;2023-07-20T05:35:38;16.50;99.90
6538;DHT22;3302;52.508;13.454;2023-07-20T05:38:04;16.50;99.90
6538;DHT22;3302;52.508;13.454;2023-07-20T05:40:30;16.50;99.90
6538;DHT22;3302;52.508;13.454;2023-07-20T05:42:56;16.60;99.90
6538;DHT22;3302;52.508;13.454;2023-07-20T05:45:23;16.50;99.90
6538;DHT22;3302;52.508;13.454;2023-07-20T05:47:48;16.80;99.90
6538;DHT22;3302;52.508;13.454;2023-07-20T05:50:14;16.90;99.90
6538;DHT22;3302;52.508;13.454;2023-07-20T05:52:40;16.90;99.90
6538;DHT22;3302;52.508;13.454;2023-07-20T05:55:06;16.90;99.90
6538;DHT22;3302;52.508;13.454;2023-07-20T05:57:33;17.00;99.90
6538;DHT22;3302;52.508;13.454;2023-07-20T05:59:59;17.00;99.90
6538;DHT22;3302;52.508;13.454;2023-07-20T06:02:25;17.10;99.90
6538;DHT22;3302;52.508;13.454;2023-07-20T06:04:50;17.00;99.90
6538;DHT22;3302;52.508;13.454;2023-07-20T06:07:16;17.10;99.90
6538;DHT22;3302;52.508;13.454;2023-07-20T06:09:42;16.90;99.90
6538;DHT22;3302;52.508;13.454;2023-07-20T06:12:08;16.80;99.90
6538;DHT22;3302;52.508;13.454;2023-07-20T06:14:34;16.80;99.90
6538;DHT22;3302;52.508;13.454;2023-07-20T06:17:00;16.80;99.90
6538;DHT22;3302;52.508;13.454;2023-07-20T06:19:26;16.70;99.90
6538;DHT22;3302;52.508;13.454;2023-07-20T06:21:52;16.70;99.90
6538;DHT22;3302;52.508;13.454;2023-07-20T06:24:18;16.70;99.90
6538;DHT22;3302;52.508;13.454;2023-07-20T06:26:44;16.60;99.90
6538;DHT22;3302;52.508;13.454;2023-07-20T06:29:10;16.70;99.90
6538;DHT22;3302;52.508;13.454;2023-07-20T06:31:36;16.70;99.90
6538;DHT22;3302;52.508;13.454;2023-07-20T06:34:02;16.80;99.90
6538;DHT22;3302;52.508;13.454;2023-07-20T06:36:28;16.90;99.90
6538;DHT22;3302;52.508;13.454;2023-07-20T06:38:57;16.90;99.90
6538;DHT22;3302;52.508;13.454;2023-07-20T06:41:23;16.90;99.90
6538;DHT22;3302;52.508;13.454;2023-07-20T06:43:50;17.10;99.90
6538;DHT22;3302;52.508;13.454;2023-07-20T06:46:15;17.20;99.90
6538;DHT22;3302;52.508;13.454;2023-07-20T06:48:41;17.30;99.90
6538;DHT22;3302;52.508;13.454;2023-07-20T06:51:07;17.30;99.90
6538;DHT22;3302;52.508;13.454;2023-07-20T06:53:33;17.20;99.90
6538;DHT22;3302;52.508;13.454;2023-07-20T06:55:59;17.10;99.90
6538;DHT22;3302;52.508;13.454;2023-07-20T06:58:25;17.10;99.90
6538;DHT22;3302;52.508;13.454;2023-07-20T07:00:51;17.00;99.90
6538;DHT22;3302;52.508;13.454;2023-07-20T07:03:17;17.10;99.90
6538;DHT22;3302;52.508;13.454;2023-07-20T07:05:43;17.20;99.90
6538;DHT22;3302;52.508;13.454;2023-07-20T07:08:11;17.00;99.90
6538;DHT22;3302;52.508;13.454;2023-07-20T07:10:37;17.00;99.90
6538;DHT22;3302;52.508;13.454;2023-07-20T07:13:03;17.10;99.90
6538;DHT22;3302;52.508;13.454;2023-07-20T07:15:29;17.40;99.90
6538;DHT22;3302;52.508;13.454;2023-07-20T07:17:55;17.40;99.90
6538;DHT22;3302;52.508;13.454;2023-07-20T07:20:21;17.70;99.90
6538;DHT22;3302;52.508;13.454;2023-07-20T07:22:47;18.00;99.90
6538;DHT22;3302;52.508;13.454;2023-07-20T07:25:13;17.90;99.90
6538;DHT22;3302;52.508;13.454;2023-07-20T07:27:40;17.70;99.90
6538;DHT22;3302;52.508;13.454;2023-07-20T07:30:06;17.60;99.90
6538;DHT22;3302;52.508;13.454;2023-07-20T07:32:32;17.50;99.90
6538;DHT22;3302;52.508;13.454;2023-07-20T07:34:57;17.40;99.90
6538;DHT22;3302;52.508;13.454;2023-07-20T07:37:26;17.60;99.90
6538;DHT22;3302;52.508;13.454;2023-07-20T07:39:52;17.90;99.90
6538;DHT22;3302;52.508;13.454;2023-07-20T07:42:18;18.00;98.90
6538;DHT22;3302;52.508;13.454;2023-07-20T07:44:44;18.00;98.80
6538;DHT22;3302;52.508;13.454;2023-07-20T07:47:10;18.30;97.30
6538;DHT22;3302;52.508;13.454;2023-07-20T07:49:36;18.40;97.20
6538;DHT22;3302;52.508;13.454;2023-07-20T07:52:02;18.30;97.30
6538;DHT22;3302;52.508;13.454;2023-07-20T07:54:28;18.50;97.70
6538;DHT22;3302;52.508;13.454;2023-07-20T07:56:55;18.80;96.80
6538;DHT22;3302;52.508;13.454;2023-07-20T07:59:20;18.80;96.80
6538;DHT22;3302;52.508;13.454;2023-07-20T08:01:46;18.50;95.50
6538;DHT22;3302;52.508;13.454;2023-07-20T08:04:12;18.30;96.10
6538;DHT22;3302;52.508;13.454;2023-07-20T08:06:39;18.30;96.20
6538;DHT22;3302;52.508;13.454;2023-07-20T08:09:05;18.30;96.10
6538;DHT22;3302;52.508;13.454;2023-07-20T08:11:30;18.50;96.50
6538;DHT22;3302;52.508;13.454;2023-07-20T08:14:00;18.70;96.20
6538;DHT22;3302;52.508;13.454;2023-07-20T08:16:26;18.80;96.50
6538;DHT22;3302;52.508;13.454;2023-07-20T08:18:52;18.80;96.40
6538;DHT22;3302;52.508;13.454;2023-07-20T08:21:18;18.80;96.70
6538;DHT22;3302;52.508;13.454;2023-07-20T08:23:44;18.70;94.70
6538;DHT22;3302;52.508;13.454;2023-07-20T08:26:10;18.70;94.30
6538;DHT22;3302;52.508;13.454;2023-07-20T08:28:35;18.60;93.00
6538;DHT22;3302;52.508;13.454;2023-07-20T08:31:01;18.60;93.80
6538;DHT22;3302;52.508;13.454;2023-07-20T08:33:28;18.80;93.60
6538;DHT22;3302;52.508;13.454;2023-07-20T08:35:59;18.70;93.90
6538;DHT22;3302;52.508;13.454;2023-07-20T08:38:26;18.90;93.80
6538;DHT22;3302;52.508;13.454;2023-07-20T08:40:53;19.00;93.00
6538;DHT22;3302;52.508;13.454;2023-07-20T08:43:23;19.00;92.90
6538;DHT22;3302;52.508;13.454;2023-07-20T08:45:54;19.00;92.80
6538;DHT22;3302;52.508;13.454;2023-07-20T08:48:21;18.80;93.10
6538;DHT22;3302;52.508;13.454;2023-07-20T08:50:51;19.00;93.10
6538;DHT22;3302;52.508;13.454;2023-07-20T08:53:20;19.20;93.10
6538;DHT22;3302;52.508;13.454;2023-07-20T08:55:49;19.20;93.00
6538;DHT22;3302;52.508;13.454;2023-07-20T08:58:16;19.20;92.40
6538;DHT22;3302;52.508;13.454;2023-07-20T09:00:43;19.00;91.30
6538;DHT22;3302;52.508;13.454;2023-07-20T09:03:10;19.20;90.60
6538;DHT22;3302;52.508;13.454;2023-07-20T09:05:36;19.50;90.70
6538;DHT22;3302;52.508;13.454;2023-07-20T09:08:02;19.50;91.20
6538;DHT22;3302;52.508;13.454;2023-07-20T09:10:29;19.80;91.10
6538;DHT22;3302;52.508;13.454;2023-07-20T09:12:55;19.80;90.70
6538;DHT22;3302;52.508;13.454;2023-07-20T09:15:22;19.70;90.00
6538;DHT22;3302;52.508;13.454;2023-07-20T09:17:49;19.60;89.00
6538;DHT22;3302;52.508;13.454;2023-07-20T09:20:18;19.70;88.60
6538;DHT22;3302;52.508;13.454;2023-07-20T09:22:44;19.70;88.30
6538;DHT22;3302;52.508;13.454;2023-07-20T09:25:15;19.60;88.90
6538;DHT22;3302;52.508;13.454;2023-07-20T09:27:46;19.70;89.10
6538;DHT22;3302;52.508;13.454;2023-07-20T09:30:13;19.70;88.80
6538;DHT22;3302;52.508;13.454;2023-07-20T09:32:45;19.80;89.60
6538;DHT22;3302;52.508;13.454;2023-07-20T09:35:15;20.30;88.80
6538;DHT22;3302;52.508;13.454;2023-07-20T09:37:47;20.30;86.60
6538;DHT22;3302;52.508;13.454;2023-07-20T09:40:18;20.50;85.90
6538;DHT22;3302;52.508;13.454;2023-07-20T09:42:44;20.60;85.00
6538;DHT22;3302;52.508;13.454;2023-07-20T09:45:10;20.10;85.70
6538;DHT22;3302;52.508;13.454;2023-07-20T09:47:37;20.10;87.40
6538;DHT22;3302;52.508;13.454;2023-07-20T09:50:04;19.90;88.40
6538;DHT22;3302;52.508;13.454;2023-07-20T09:52:34;19.70;87.00
6538;DHT22;3302;52.508;13.454;2023-07-20T09:55:01;19.80;87.90
6538;DHT22;3302;52.508;13.454;2023-07-20T09:57:28;19.70;88.10
6538;DHT22;3302;52.508;13.454;2023-07-20T09:59:55;19.50;89.00
6538;DHT22;3302;52.508;13.454;2023-07-20T10:02:24;19.50;90.00
6538;DHT22;3302;52.508;13.454;2023-07-20T10:04:53;19.30;88.60
6538;DHT22;3302;52.508;13.454;2023-07-20T10:07:19;19.20;91.70
6538;DHT22;3302;52.508;13.454;2023-07-20T10:09:51;18.80;94.40
6538;DHT22;3302;52.508;13.454;2023-07-20T10:12:18;18.50;95.80
6538;DHT22;3302;52.508;13.454;2023-07-20T10:14:54;18.50;96.20
6538;DHT22;3302;52.508;13.454;2023-07-20T10:17:23;18.30;97.10
6538;DHT22;3302;52.508;13.454;2023-07-20T10:19:54;18.40;96.70
6538;DHT22;3302;52.508;13.454;2023-07-20T10:22:26;18.60;96.00
6538;DHT22;3302;52.508;13.454;2023-07-20T10:24:53;18.60;96.80
6538;DHT22;3302;52.508;13.454;2023-07-20T10:27:23;18.70;96.10
6538;DHT22;3302;52.508;13.454;2023-07-20T10:29:50;18.70;95.70
6538;DHT22;3302;52.508;13.454;2023-07-20T10:32:17;18.80;95.40
6538;DHT22;3302;52.508;13.454;2023-07-20T10:34:50;18.70;94.50
6538;DHT22;3302;52.508;13.454;2023-07-20T10:37:46;18.60;94.60
6538;DHT22;3302;52.508;13.454;2023-07-20T10:40:34;18.60;94.00
6538;DHT22;3302;52.508;13.454;2023-07-20T10:43:07;18.60;93.90
6538;DHT22;3302;52.508;13.454;2023-07-20T10:45:49;18.50;93.70
6538;DHT22;3302;52.508;13.454;2023-07-20T10:48:20;18.60;93.20
6538;DHT22;3302;52.508;13.454;2023-07-20T10:51:11;18.70;92.80
6538;DHT22;3302;52.508;13.454;2023-07-20T10:53:37;18.70;92.70
6538;DHT22;3302;52.508;13.454;2023-07-20T10:56:22;18.60;93.00
6538;DHT22;3302;52.508;13.454;2023-07-20T10:58:49;18.70;92.80
6538;DHT22;3302;52.508;13.454;2023-07-20T11:01:16;18.80;92.90
6538;DHT22;3302;52.508;13.454;2023-07-20T11:03:43;19.00;92.50
6538;DHT22;3302;52.508;13.454;2023-07-20T11:06:36;19.00;92.60
6538;DHT22;3302;52.508;13.454;2023-07-20T11:09:08;19.10;92.70
6538;DHT22;3302;52.508;13.454;2023-07-20T11:11:38;19.10;92.60
6538;DHT22;3302;52.508;13.454;2023-07-20T11:14:25;19.00;92.00
6538;DHT22;3302;52.508;13.454;2023-07-20T11:16:52;19.00;91.80
6538;DHT22;3302;52.508;13.454;2023-07-20T11:21:45;19.30;91.60
6538;DHT22;3302;52.508;13.454;2023-07-20T11:24:12;19.40;91.60
6538;DHT22;3302;52.508;13.454;2023-07-20T11:26:50;19.30;91.40
6538;DHT22;3302;52.508;13.454;2023-07-20T11:29:17;19.10;92.00
6538;DHT22;3302;52.508;13.454;2023-07-20T11:31:45;19.30;91.90
6538;DHT22;3302;52.508;13.454;2023-07-20T11:34:13;19.30;92.40
6538;DHT22;3302;52.508;13.454;2023-07-20T11:36:49;19.30;91.90
6538;DHT22;3302;52.508;13.454;2023-07-20T11:39:19;19.20;92.80
6538;DHT22;3302;52.508;13.454;2023-07-20T11:41:53;18.80;94.00
6538;DHT22;3302;52.508;13.454;2023-07-20T11:44:21;19.00;93.30
6538;DHT22;3302;52.508;13.454;2023-07-20T11:47:09;19.30;93.50
6538;DHT22;3302;52.508;13.454;2023-07-20T11:49:40;19.40;92.70
6538;DHT22;3302;52.508;13.454;2023-07-20T11:52:08;19.60;91.90
6538;DHT22;3302;52.508;13.454;2023-07-20T11:54:35;19.70;91.80
6538;DHT22;3302;52.508;13.454;2023-07-20T11:57:01;19.80;91.10
6538;DHT22;3302;52.508;13.454;2023-07-20T11:59:27;20.10;90.80
6538;DHT22;3302;52.508;13.454;2023-07-20T12:01:53;20.00;89.90
6538;DHT22;3302;52.508;13.454;2023-07-20T12:04:19;20.20;90.20
6538;DHT22;3302;52.508;13.454;2023-07-20T12:06:48;20.10;90.10
6538;DHT22;3302;52.508;13.454;2023-07-20T12:09:16;20.00;88.90
6538;DHT22;3302;52.508;13.454;2023-07-20T12:11:43;19.80;90.30
6538;DHT22;3302;52.508;13.454;2023-07-20T12:14:10;19.70;90.30
6538;DHT22;3302;52.508;13.454;2023-07-20T12:16:37;19.80;90.30
6538;DHT22;3302;52.508;13.454;2023-07-20T12:19:07;19.70;90.30
6538;DHT22;3302;52.508;13.454;2023-07-20T12:21:37;19.80;89.10
6538;DHT22;3302;52.508;13.454;2023-07-20T12:24:04;19.60;88.90
6538;DHT22;3302;52.508;13.454;2023-07-20T12:26:31;19.70;88.60
6538;DHT22;3302;52.508;13.454;2023-07-20T12:28:58;19.80;88.20
6538;DHT22;3302;52.508;13.454;2023-07-20T12:31:25;19.60;88.10
6538;DHT22;3302;52.508;13.454;2023-07-20T12:33:52;19.70;88.50
6538;DHT22;3302;52.508;13.454;2023-07-20T12:36:18;19.70;87.30
6538;DHT22;3302;52.508;13.454;2023-07-20T12:38:45;19.70;86.00
6538;DHT22;3302;52.508;13.454;2023-07-20T12:41:12;19.70;86.00
6538;DHT22;3302;52.508;13.454;2023-07-20T12:43:42;19.60;85.50
6538;DHT22;3302;52.508;13.454;2023-07-20T12:46:09;19.60;86.50
6538;DHT22;3302;52.508;13.454;2023-07-20T12:48:36;19.70;82.40
6538;DHT22;3302;52.508;13.454;2023-07-20T12:51:07;19.60;82.00
6538;DHT22;3302;52.508;13.454;2023-07-20T12:53:33;19.90;81.60
6538;DHT22;3302;52.508;13.454;2023-07-20T12:56:00;20.10;80.90
6538;DHT22;3302;52.508;13.454;2023-07-20T12:58:26;20.20;82.00
6538;DHT22;3302;52.508;13.454;2023-07-20T13:00:52;20.50;80.90
6538;DHT22;3302;52.508;13.454;2023-07-20T13:03:18;20.60;79.50
6538;DHT22;3302;52.508;13.454;2023-07-20T13:05:46;20.60;78.80
6538;DHT22;3302;52.508;13.454;2023-07-20T13:08:12;20.40;73.40
6538;DHT22;3302;52.508;13.454;2023-07-20T13:10:38;20.40;69.90
6538;DHT22;3302;52.508;13.454;2023-07-20T13:13:05;20.50;72.50
6538;DHT22;3302;52.508;13.454;2023-07-20T13:15:32;20.70;72.70
6538;DHT22;3302;52.508;13.454;2023-07-20T13:17:58;20.80;71.80
6538;DHT22;3302;52.508;13.454;2023-07-20T13:20:26;20.60;68.20
6538;DHT22;3302;52.508;13.454;2023-07-20T13:22:53;20.80;70.00
6538;DHT22;3302;52.508;13.454;2023-07-20T13:25:19;21.00;68.90
6538;DHT22;3302;52.508;13.454;2023-07-20T13:27:45;20.80;65.30
6538;DHT22;3302;52.508;13.454;2023-07-20T13:30:11;20.90;64.40
6538;DHT22;3302;52.508;13.454;2023-07-20T13:32:43;21.00;63.00
6538;DHT22;3302;52.508;13.454;2023-07-20T13:35:10;21.00;61.30
6538;DHT22;3302;52.508;13.454;2023-07-20T13:37:36;21.10;60.70
6538;DHT22;3302;52.508;13.454;2023-07-20T13:40:02;21.10;60.40
6538;DHT22;3302;52.508;13.454;2023-07-20T13:42:31;21.20;60.00
6538;DHT22;3302;52.508;13.454;2023-07-20T13:44:57;21.30;58.90
6538;DHT22;3302;52.508;13.454;2023-07-20T13:47:23;21.50;56.70
6538;DHT22;3302;52.508;13.454;2023-07-20T13:49:48;21.50;55.80
6538;DHT22;3302;52.508;13.454;2023-07-20T13:52:15;21.50;55.20
6538;DHT22;3302;52.508;13.454;2023-07-20T13:54:41;21.50;54.60
6538;DHT22;3302;52.508;13.454;2023-07-20T13:57:06;21.60;55.30
6538;DHT22;3302;52.508;13.454;2023-07-20T13:59:32;21.60;54.10
6538;DHT22;3302;52.508;13.454;2023-07-20T14:01:58;21.70;54.00
6538;DHT22;3302;52.508;13.454;2023-07-20T14:04:24;21.80;53.40
6538;DHT22;3302;52.508;13.454;2023-07-20T14:06:50;21.80;53.40
6538;DHT22;3302;52.508;13.454;2023-07-20T14:09:17;21.90;52.80
6538;DHT22;3302;52.508;13.454;2023-07-20T14:11:42;21.90;52.90
6538;DHT22;3302;52.508;13.454;2023-07-20T14:14:09;22.00;52.60
6538;DHT22;3302;52.508;13.454;2023-07-20T14:16:35;21.90;51.40
6538;DHT22;3302;52.508;13.454;2023-07-20T14:19:00;22.10;52.50
6538;DHT22;3302;52.508;13.454;2023-07-20T14:21:26;22.20;52.90
6538;DHT22;3302;52.508;13.454;2023-07-20T14:23:53;22.20;53.40
6538;DHT22;3302;52.508;13.454;2023-07-20T14:26:19;22.60;53.80
6538;DHT22;3302;52.508;13.454;2023-07-20T14:28:45;22.90;51.20
6538;DHT22;3302;52.508;13.454;2023-07-20T14:31:11;22.90;50.50
6538;DHT22;3302;52.508;13.454;2023-07-20T14:33:36;22.60;47.20
6538;DHT22;3302;52.508;13.454;2023-07-20T14:36:03;22.70;45.50
6538;DHT22;3302;52.508;13.454;2023-07-20T14:38:30;22.80;44.80
6538;DHT22;3302;52.508;13.454;2023-07-20T14:40:57;23.00;45.30
6538;DHT22;3302;52.508;13.454;2023-07-20T14:43:22;23.40;45.00
6538;DHT22;3302;52.508;13.454;2023-07-20T14:45:48;23.40;44.10
6538;DHT22;3302;52.508;13.454;2023-07-20T14:48:14;23.20;44.10
6538;DHT22;3302;52.508;13.454;2023-07-20T14:50:40;23.40;44.20
6538;DHT22;3302;52.508;13.454;2023-07-20T14:53:06;23.50;45.00
6538;DHT22;3302;52.508;13.454;2023-07-20T14:55:33;23.70;43.30
6538;DHT22;3302;52.508;13.454;2023-07-20T14:57:59;23.60;41.50
6538;DHT22;3302;52.508;13.454;2023-07-20T15:00:25;23.60;42.00
6538;DHT22;3302;52.508;13.454;2023-07-20T15:02:51;23.70;42.20
6538;DHT22;3302;52.508;13.454;2023-07-20T15:05:24;23.70;40.90
6538;DHT22;3302;52.508;13.454;2023-07-20T15:07:50;23.50;40.20
6538;DHT22;3302;52.508;13.454;2023-07-20T15:10:16;23.30;40.80
6538;DHT22;3302;52.508;13.454;2023-07-20T15:12:42;23.10;41.20
6538;DHT22;3302;52.508;13.454;2023-07-20T15:15:10;23.00;41.30
6538;DHT22;3302;52.508;13.454;2023-07-20T15:17:37;23.20;41.80
6538;DHT22;3302;52.508;13.454;2023-07-20T15:20:04;23.20;41.50
6538;DHT22;3302;52.508;13.454;2023-07-20T15:22:34;23.50;41.30
6538;DHT22;3302;52.508;13.454;2023-07-20T15:25:08;23.70;41.50
6538;DHT22;3302;52.508;13.454;2023-07-20T15:27:36;23.60;40.70
6538;DHT22;3302;52.508;13.454;2023-07-20T15:30:02;23.30;41.60
6538;DHT22;3302;52.508;13.454;2023-07-20T15:32:28;23.80;41.60
6538;DHT22;3302;52.508;13.454;2023-07-20T15:34:53;23.60;40.30
6538;DHT22;3302;52.508;13.454;2023-07-20T15:37:19;23.60;40.10
6538;DHT22;3302;52.508;13.454;2023-07-20T15:39:49;23.70;40.30
6538;DHT22;3302;52.508;13.454;2023-07-20T15:42:15;23.50;40.00
6538;DHT22;3302;52.508;13.454;2023-07-20T15:44:42;23.10;41.30
6538;DHT22;3302;52.508;13.454;2023-07-20T15:47:08;23.00;41.90
6538;DHT22;3302;52.508;13.454;2023-07-20T15:49:34;23.30;41.60
6538;DHT22;3302;52.508;13.454;2023-07-20T15:51:59;23.40;41.00